Time;durP1;ratioP1;P1;durP2;ratioP2;P2;SDS_P1;SDS_P2;PMS_P1;PMS_P2;Temp;Humidity;BMP_temperature;BMP_pressure;BME280_temperature;BME280_humidity;BME280_pressure;Samples;Min_cycle;Max_cycle;Signal;HPM_P1;HPM_P2
2024/01/20 00:02:08;;;;;;;36.20;18.92;;;;;;;;;;4882888;29;20247;-73
2024/01/20 00:04:38;;;;;;;40.75;18.98;;;;;;;;;;4926680;29;20201;-73
2024/01/20 00:07:06;;;;;;;32.40;18.45;;;;;;;;;;4919156;29;20200;-73
2024/01/20 00:09:34;;;;;;;43.90;17.85;;;;;;;;;;4919943;29;20197;-73
2024/01/20 00:12:02;;;;;;;35.05;17.48;;;;;;;;;;4923243;29;20205;-73
2024/01/20 00:14:30;;;;;;;40.58;20.63;;;;;;;;;;4920724;29;20644;-73
2024/01/20 00:16:59;;;;;;;40.20;20.70;;;;;;;;;;4918010;29;20225;-73
2024/01/20 00:19:27;;;;;;;39.70;19.08;;;;;;;;;;4929341;29;20557;-73
2024/01/20 00:21:56;;;;;;;51.55;20.17;;;;;;;;;;4922766;29;20611;-73
2024/01/20 00:24:25;;;;;;;37.17;18.15;;;;;;;;;;4933267;29;20200;-73
2024/01/20 00:26:53;;;;;;;49.92;22.25;;;;;;;;;;4918144;29;20204;-73
2024/01/20 00:29:21;;;;;;;39.38;17.10;;;;;;;;;;4923241;29;20204;-73
2024/01/20 00:31:49;;;;;;;35.53;17.20;;;;;;;;;;4934571;29;20219;-73
2024/01/20 00:34:17;;;;;;;32.80;16.85;;;;;;;;;;4919782;29;20287;-74
2024/01/20 00:36:46;;;;;;;32.70;17.52;;;;;;;;;;4915198;29;20724;-73
2024/01/20 00:39:15;;;;;;;35.13;17.02;;;;;;;;;;4916417;29;20213;-73
2024/01/20 00:41:43;;;;;;;40.47;17.85;;;;;;;;;;4915876;29;20197;-73
2024/01/20 00:44:12;;;;;;;44.28;20.20;;;;;;;;;;4914186;29;20215;-73
2024/01/20 00:46:40;;;;;;;41.17;21.20;;;;;;;;;;4926761;29;20562;-74
2024/01/20 00:49:08;;;;;;;35.80;18.73;;;;;;;;;;4930879;29;20219;-73
2024/01/20 00:51:36;;;;;;;39.70;19.65;;;;;;;;;;4921071;29;20212;-73
2024/01/20 00:54:04;;;;;;;34.90;18.27;;;;;;;;;;4915884;29;20212;-74
2024/01/20 00:56:34;;;;;;;46.03;21.30;;;;;;;;;;4916753;29;20229;-73
2024/01/20 00:59:02;;;;;;;41.22;21.00;;;;;;;;;;4931221;29;20209;-73
2024/01/20 01:01:30;;;;;;;34.85;17.92;;;;;;;;;;4915534;29;20212;-73
2024/01/20 01:03:59;;;;;;;42.60;19.20;;;;;;;;;;4925014;29;20664;-74
2024/01/20 01:06:27;;;;;;;39.97;20.50;;;;;;;;;;4916282;29;20205;-74
2024/01/20 01:08:55;;;;;;;38.35;19.33;;;;;;;;;;4926324;29;20664;-74
2024/01/20 01:11:24;;;;;;;43.08;19.90;;;;;;;;;;4916586;29;20668;-74
2024/01/20 01:13:53;;;;;;;39.97;19.42;;;;;;;;;;4917980;29;20196;-74
2024/01/20 01:16:21;;;;;;;34.58;17.58;;;;;;;;;;4901994;29;20219;-74
2024/01/20 01:18:50;;;;;;;35.63;18.38;;;;;;;;;;4919421;29;20215;-74
2024/01/20 01:21:18;;;;;;;36.45;18.42;;;;;;;;;;4919685;29;20213;-74
2024/01/20 01:23:46;;;;;;;37.78;17.73;;;;;;;;;;4911607;29;20267;-74
2024/01/20 01:26:15;;;;;;;44.25;19.95;;;;;;;;;;4938654;29;20267;-73
2024/01/20 01:28:43;;;;;;;36.97;18.52;;;;;;;;;;4938611;29;20204;-73
2024/01/20 01:31:12;;;;;;;38.40;17.92;;;;;;;;;;4938250;29;20205;-73
2024/01/20 01:33:41;;;;;;;45.00;20.30;;;;;;;;;;4928144;29;20571;-73
2024/01/20 01:36:09;;;;;;;47.13;20.00;;;;;;;;;;4911050;29;20656;-74
2024/01/20 01:38:36;;;;;;;37.05;18.92;;;;;;;;;;4938576;29;20592;-74
2024/01/20 01:41:04;;;;;;;43.35;19.27;;;;;;;;;;4938143;29;20208;-74
2024/01/20 01:43:32;;;;;;;36.35;18.65;;;;;;;;;;4928773;29;20217;-74
2024/01/20 01:46:01;;;;;;;30.63;18.33;;;;;;;;;;4929750;29;20717;-74
2024/01/20 01:48:30;;;;;;;39.58;19.40;;;;;;;;;;4929256;29;20204;-74
2024/01/20 01:50:59;;;;;;;34.13;19.13;;;;;;;;;;4918643;29;20223;-74
2024/01/20 01:53:27;;;;;;;48.55;23.30;;;;;;;;;;4927153;29;20205;-75
2024/01/20 01:55:56;;;;;;;41.80;20.70;;;;;;;;;;4925355;29;20656;-74
2024/01/20 01:58:25;;;;;;;49.30;21.60;;;;;;;;;;4937783;29;20605;-74
2024/01/20 02:00:54;;;;;;;40.35;19.77;;;;;;;;;;4924300;29;20215;-74
2024/01/20 02:03:22;;;;;;;35.45;18.52;;;;;;;;;;4924618;29;20240;-74
2024/01/20 02:05:52;;;;;;;44.25;21.60;;;;;;;;;;4924166;29;20209;-74
2024/01/20 02:08:23;;;;;;;51.70;22.98;;;;;;;;;;4938017;29;20211;-74
2024/01/20 02:10:51;;;;;;;34.60;17.00;;;;;;;;;;4927669;29;20648;-74
2024/01/20 02:13:20;;;;;;;30.02;16.63;;;;;;;;;;4926017;29;20209;-74
2024/01/20 02:15:49;;;;;;;33.80;16.55;;;;;;;;;;4928151;29;20211;-73
2024/01/20 02:18:17;;;;;;;33.13;17.17;;;;;;;;;;4937864;29;20626;-74
2024/01/20 02:20:45;;;;;;;47.97;20.88;;;;;;;;;;4937048;29;20211;-74
2024/01/20 02:23:15;;;;;;;56.05;27.58;;;;;;;;;;4932420;29;20208;-74
2024/01/20 02:25:43;;;;;;;84.72;38.08;;;;;;;;;;4936925;29;20604;-74
2024/01/20 02:28:11;;;;;;;35.10;16.83;;;;;;;;;;4936935;29;20208;-75
2024/01/20 02:30:40;;;;;;;38.50;17.73;;;;;;;;;;4936767;29;20208;-74
2024/01/20 02:33:08;;;;;;;35.60;16.63;;;;;;;;;;4931297;29;20205;-74
2024/01/20 02:35:36;;;;;;;54.70;22.83;;;;;;;;;;4918290;29;20209;-74
2024/01/20 02:38:04;;;;;;;35.22;17.50;;;;;;;;;;4917688;29;20225;-75
2024/01/20 02:40:34;;;;;;;70.47;33.25;;;;;;;;;;4901590;29;20205;-74
2024/01/20 02:43:02;;;;;;;51.40;27.85;;;;;;;;;;4904308;29;20211;-74
2024/01/20 02:45:31;;;;;;;34.65;17.48;;;;;;;;;;4924727;29;20612;-74
2024/01/20 02:47:59;;;;;;;32.15;14.02;;;;;;;;;;4929174;29;20211;-75
2024/01/20 02:50:27;;;;;;;33.00;15.18;;;;;;;;;;4924025;29;20205;-75
2024/01/20 02:52:55;;;;;;;33.83;14.23;;;;;;;;;;4920712;29;20656;-74
2024/01/20 02:55:23;;;;;;;44.25;14.32;;;;;;;;;;4936435;29;20361;-75
2024/01/20 02:57:53;;;;;;;42.80;19.17;;;;;;;;;;4923795;29;20664;-74
2024/01/20 03:00:21;;;;;;;36.90;16.75;;;;;;;;;;4910754;29;20663;-74
2024/01/20 03:02:49;;;;;;;38.53;18.40;;;;;;;;;;4932127;29;20240;-74
2024/01/20 03:05:18;;;;;;;36.25;16.40;;;;;;;;;;4927626;29;20227;-74
2024/01/20 03:07:46;;;;;;;34.90;16.67;;;;;;;;;;4935888;29;20200;-73
2024/01/20 03:10:14;;;;;;;45.85;16.95;;;;;;;;;;4916542;29;20215;-74
2024/01/20 03:12:43;;;;;;;41.08;17.52;;;;;;;;;;4931780;29;20201;-74
2024/01/20 03:15:12;;;;;;;33.65;14.90;;;;;;;;;;4917696;29;20205;-73
2024/01/20 03:17:40;;;;;;;36.60;14.60;;;;;;;;;;4916852;29;20228;-74
2024/01/20 03:20:09;;;;;;;33.38;14.02;;;;;;;;;;4919810;29;20215;-74
2024/01/20 03:22:38;;;;;;;24.17;12.60;;;;;;;;;;4930551;29;20209;-74
2024/01/20 03:25:06;;;;;;;25.55;14.15;;;;;;;;;;4917400;29;20201;-74
2024/01/20 03:27:34;;;;;;;29.10;12.77;;;;;;;;;;4918802;29;20203;-75
2024/01/20 03:30:03;;;;;;;23.15;11.75;;;;;;;;;;4903003;29;20201;-74
2024/01/20 03:32:32;;;;;;;23.30;12.35;;;;;;;;;;4935469;29;20208;-75
2024/01/20 03:35:00;;;;;;;25.20;11.25;;;;;;;;;;4930656;29;20197;-74
2024/01/20 03:37:29;;;;;;;23.83;11.95;;;;;;;;;;4905013;29;20209;-75
2024/01/20 03:39:57;;;;;;;22.00;11.85;;;;;;;;;;4916468;29;20690;-73
2024/01/20 03:42:28;;;;;;;23.20;12.25;;;;;;;;;;4918102;29;20211;-74
2024/01/20 03:44:56;;;;;;;26.90;11.95;;;;;;;;;;4923746;29;20562;-74
2024/01/20 03:47:25;;;;;;;24.23;11.63;;;;;;;;;;4931612;29;20208;-74
2024/01/20 03:49:54;;;;;;;22.10;11.48;;;;;;;;;;4909727;29;20240;-74
2024/01/20 03:52:22;;;;;;;26.40;12.68;;;;;;;;;;4907456;29;20597;-74
2024/01/20 03:54:51;;;;;;;19.70;11.52;;;;;;;;;;4934993;29;20205;-74
2024/01/20 03:57:19;;;;;;;24.23;12.00;;;;;;;;;;4923779;29;20567;-74
2024/01/20 03:59:47;;;;;;;18.40;11.05;;;;;;;;;;4917869;29;20227;-75
2024/01/20 04:02:16;;;;;;;26.25;11.93;;;;;;;;;;4909621;29;20240;-74
2024/01/20 04:04:44;;;;;;;23.25;10.68;;;;;;;;;;4925276;29;20594;-74
2024/01/20 04:07:14;;;;;;;22.73;11.73;;;;;;;;;;4903981;29;20303;-74
2024/01/20 04:09:43;;;;;;;26.27;11.15;;;;;;;;;;4897591;29;20197;-74
2024/01/20 04:12:11;;;;;;;24.05;11.45;;;;;;;;;;4914023;29;20205;-75
2024/01/20 04:14:41;;;;;;;24.52;11.20;;;;;;;;;;4910411;29;20216;-74
2024/01/20 04:17:09;;;;;;;30.23;13.25;;;;;;;;;;4899178;29;20661;-74
2024/01/20 04:19:37;;;;;;;26.90;12.32;;;;;;;;;;4907463;29;20221;-74
2024/01/20 04:22:05;;;;;;;22.13;10.68;;;;;;;;;;4912814;29;20268;-74
2024/01/20 04:24:35;;;;;;;26.08;10.00;;;;;;;;;;4911669;29;20205;-75
2024/01/20 04:27:03;;;;;;;29.60;12.70;;;;;;;;;;4915580;29;20205;-75
2024/01/20 04:29:31;;;;;;;31.23;11.10;;;;;;;;;;4914977;29;20212;-74
2024/01/20 04:31:59;;;;;;;26.52;11.77;;;;;;;;;;4915871;29;20205;-75
2024/01/20 04:34:28;;;;;;;20.27;10.52;;;;;;;;;;4912791;29;20206;-74
2024/01/20 04:36:56;;;;;;;20.10;11.25;;;;;;;;;;4914339;29;20209;-73
2024/01/20 04:39:24;;;;;;;22.63;10.52;;;;;;;;;;4914498;29;20229;-75
2024/01/20 04:41:54;;;;;;;22.42;12.05;;;;;;;;;;4915954;29;20209;-74
2024/01/20 04:44:22;;;;;;;29.95;12.85;;;;;;;;;;4901701;29;20680;-74
2024/01/20 04:46:50;;;;;;;22.10;11.40;;;;;;;;;;4897951;29;20579;-74
2024/01/20 04:49:18;;;;;;;24.08;11.13;;;;;;;;;;4896583;29;20617;-73
2024/01/20 04:51:47;;;;;;;17.58;10.10;;;;;;;;;;4897076;29;20210;-74
2024/01/20 04:54:15;;;;;;;20.20;10.13;;;;;;;;;;4907435;29;20231;-75
2024/01/20 04:56:43;;;;;;;23.40;11.90;;;;;;;;;;4912405;29;20194;-75
2024/01/20 04:59:13;;;;;;;24.25;11.23;;;;;;;;;;4896865;29;20221;-74
2024/01/20 05:01:41;;;;;;;17.70;9.65;;;;;;;;;;4896005;29;20236;-75
2024/01/20 05:04:09;;;;;;;20.98;10.60;;;;;;;;;;4908577;29;20193;-74
2024/01/20 05:06:38;;;;;;;31.20;12.00;;;;;;;;;;4917352;29;20209;-75
2024/01/20 05:09:07;;;;;;;31.83;11.38;;;;;;;;;;4934656;29;20220;-75
2024/01/20 05:11:35;;;;;;;22.48;10.98;;;;;;;;;;4921569;29;20209;-74
2024/01/20 05:14:03;;;;;;;20.38;9.68;;;;;;;;;;4925002;29;20652;-74
2024/01/20 05:16:33;;;;;;;20.90;9.90;;;;;;;;;;4917453;29;20208;-74
2024/01/20 05:19:01;;;;;;;23.33;10.70;;;;;;;;;;4934682;29;20209;-75
2024/01/20 05:21:29;;;;;;;15.93;9.23;;;;;;;;;;4933685;29;20683;-74
2024/01/20 05:23:58;;;;;;;18.83;10.35;;;;;;;;;;4907807;29;20202;-74
2024/01/20 05:26:26;;;;;;;21.70;10.23;;;;;;;;;;4914887;29;20209;-74
2024/01/20 05:28:54;;;;;;;20.90;9.50;;;;;;;;;;4915031;29;20225;-74
2024/01/20 05:31:23;;;;;;;26.95;10.20;;;;;;;;;;4915259;29;20210;-74
2024/01/20 05:33:52;;;;;;;18.77;9.60;;;;;;;;;;4923874;29;20207;-74
2024/01/20 05:36:21;;;;;;;19.02;9.43;;;;;;;;;;4919531;29;20205;-74
2024/01/20 05:38:49;;;;;;;18.67;10.35;;;;;;;;;;4915181;29;20206;-73
2024/01/20 05:41:17;;;;;;;26.45;11.95;;;;;;;;;;4914893;29;20210;-74
2024/01/20 05:43:46;;;;;;;18.25;8.43;;;;;;;;;;4918977;29;20272;-74
2024/01/20 05:46:14;;;;;;;16.85;9.95;;;;;;;;;;4909821;29;20577;-74
2024/01/20 05:48:42;;;;;;;21.27;9.05;;;;;;;;;;4919817;29;20225;-74
2024/01/20 05:51:12;;;;;;;18.80;9.60;;;;;;;;;;4933405;29;20906;-74
2024/01/20 05:53:40;;;;;;;16.02;9.35;;;;;;;;;;4927786;29;20197;-74
2024/01/20 05:56:09;;;;;;;22.55;10.15;;;;;;;;;;4914911;29;20209;-74
2024/01/20 05:58:37;;;;;;;17.33;8.40;;;;;;;;;;4916138;29;20236;-74
2024/01/20 06:01:05;;;;;;;22.13;10.82;;;;;;;;;;4937001;29;20200;-74
2024/01/20 06:03:33;;;;;;;21.63;10.25;;;;;;;;;;4930365;29;20237;-74
2024/01/20 06:06:02;;;;;;;21.15;9.23;;;;;;;;;;4917535;29;20594;-74
2024/01/20 06:08:31;;;;;;;15.25;7.63;;;;;;;;;;4918325;29;20218;-74
2024/01/20 06:10:59;;;;;;;16.20;8.88;;;;;;;;;;4917907;29;20210;-73
2024/01/20 06:13:29;;;;;;;19.10;9.55;;;;;;;;;;4924125;29;20200;-74
2024/01/20 06:15:57;;;;;;;19.70;9.13;;;;;;;;;;4936900;29;20576;-73
2024/01/20 06:18:27;;;;;;;19.63;8.38;;;;;;;;;;4932173;29;20209;-74
2024/01/20 06:20:56;;;;;;;18.30;9.02;;;;;;;;;;4929427;29;20200;-74
2024/01/20 06:23:24;;;;;;;14.90;8.52;;;;;;;;;;4917969;29;20201;-74
2024/01/20 06:25:54;;;;;;;23.60;9.23;;;;;;;;;;4917401;29;20213;-74
2024/01/20 06:28:23;;;;;;;24.10;9.70;;;;;;;;;;4907380;29;20240;-74
2024/01/20 06:30:51;;;;;;;19.27;8.60;;;;;;;;;;4919431;29;20726;-74
2024/01/20 06:33:19;;;;;;;18.20;8.65;;;;;;;;;;4934276;29;20197;-74
2024/01/20 06:35:47;;;;;;;20.92;10.73;;;;;;;;;;4936427;29;20208;-74
2024/01/20 06:38:16;;;;;;;18.67;10.15;;;;;;;;;;4936875;29;20209;-74
2024/01/20 06:40:44;;;;;;;22.80;11.60;;;;;;;;;;4936070;29;20223;-74
2024/01/20 06:43:13;;;;;;;19.05;9.93;;;;;;;;;;4935654;29;20204;-75
2024/01/20 06:45:42;;;;;;;18.95;9.98;;;;;;;;;;4916564;29;20209;-73
2024/01/20 06:48:10;;;;;;;27.25;12.20;;;;;;;;;;4921402;29;20227;-74
2024/01/20 06:50:43;;;;;;;19.05;9.00;;;;;;;;;;4936199;29;20247;-74
2024/01/20 06:53:11;;;;;;;19.52;8.48;;;;;;;;;;4934222;29;20197;-73
2024/01/20 06:55:39;;;;;;;16.38;8.30;;;;;;;;;;4917591;29;20211;-73
2024/01/20 06:58:07;;;;;;;16.90;9.85;;;;;;;;;;4921826;29;20286;-74
2024/01/20 07:00:37;;;;;;;22.70;9.85;;;;;;;;;;4935883;29;20563;-74
2024/01/20 07:03:05;;;;;;;18.85;9.25;;;;;;;;;;4933033;29;20240;-74
2024/01/20 07:05:33;;;;;;;25.33;9.63;;;;;;;;;;4918376;29;20230;-74
2024/01/20 07:08:02;;;;;;;19.83;11.05;;;;;;;;;;4931671;29;20211;-73
2024/01/20 07:10:30;;;;;;;27.10;11.65;;;;;;;;;;4934507;29;20302;-72
2024/01/20 07:12:58;;;;;;;20.88;11.35;;;;;;;;;;4929495;29;20212;-73
2024/01/20 07:15:27;;;;;;;22.10;10.13;;;;;;;;;;4914789;29;20217;-72
2024/01/20 07:17:57;;;;;;;20.95;12.23;;;;;;;;;;4935174;29;20566;-73
2024/01/20 07:20:26;;;;;;;22.38;10.50;;;;;;;;;;4935669;29;20259;-72
2024/01/20 07:22:54;;;;;;;22.73;10.50;;;;;;;;;;4934919;29;20216;-73
2024/01/20 07:25:22;;;;;;;16.25;9.63;;;;;;;;;;4935697;29;20644;-73
2024/01/20 07:27:50;;;;;;;23.15;10.77;;;;;;;;;;4918118;29;20563;-73
2024/01/20 07:30:18;;;;;;;34.67;13.05;;;;;;;;;;4932733;29;20233;-72
2024/01/20 07:32:47;;;;;;;22.75;11.23;;;;;;;;;;4935140;29;20208;-73
2024/01/20 07:35:16;;;;;;;27.17;13.63;;;;;;;;;;4918008;29;20219;-73
2024/01/20 07:37:44;;;;;;;30.73;13.02;;;;;;;;;;4935570;29;20212;-73
2024/01/20 07:40:13;;;;;;;23.52;12.05;;;;;;;;;;4930841;29;20256;-72
2024/01/20 07:42:41;;;;;;;25.75;12.50;;;;;;;;;;4927989;29;20215;-73
2024/01/20 07:45:10;;;;;;;20.33;11.57;;;;;;;;;;4929098;29;20219;-74
2024/01/20 07:47:38;;;;;;;23.80;11.18;;;;;;;;;;4935052;29;20212;-74
2024/01/20 07:50:07;;;;;;;27.38;13.30;;;;;;;;;;4920795;29;20232;-74
2024/01/20 07:52:38;;;;;;;51.85;16.02;;;;;;;;;;4924514;29;20206;-74
2024/01/20 07:55:06;;;;;;;63.78;14.90;;;;;;;;;;4925655;29;20212;-74
2024/01/20 07:57:35;;;;;;;69.95;14.88;;;;;;;;;;4917645;29;20205;-74
2024/01/20 08:00:04;;;;;;;35.25;17.48;;;;;;;;;;4928887;29;20259;-74
2024/01/20 08:02:36;;;;;;;31.65;13.60;;;;;;;;;;4932114;29;20252;-73
2024/01/20 08:05:06;;;;;;;28.48;12.13;;;;;;;;;;4924354;29;20210;-74
2024/01/20 08:07:34;;;;;;;24.70;11.88;;;;;;;;;;4926162;29;20228;-74
2024/01/20 08:10:05;;;;;;;25.75;11.23;;;;;;;;;;4932497;29;20230;-74
2024/01/20 08:12:33;;;;;;;38.97;18.88;;;;;;;;;;4930343;29;20202;-74
2024/01/20 08:15:01;;;;;;;69.88;35.80;;;;;;;;;;4927288;29;20331;-74
2024/01/20 08:17:29;;;;;;;32.70;19.33;;;;;;;;;;4933594;29;20259;-74
2024/01/20 08:19:57;;;;;;;36.85;17.75;;;;;;;;;;4919832;29;20208;-74
2024/01/20 08:22:26;;;;;;;38.58;16.27;;;;;;;;;;4934048;29;20201;-74
2024/01/20 08:24:54;;;;;;;32.22;14.95;;;;;;;;;;4927448;29;20201;-74
2024/01/20 08:27:23;;;;;;;42.15;17.08;;;;;;;;;;4929703;29;20208;-73
2024/01/20 08:29:52;;;;;;;28.58;15.98;;;;;;;;;;4921631;29;20686;-73
2024/01/20 08:32:20;;;;;;;35.35;16.60;;;;;;;;;;4932580;29;20205;-74
2024/01/20 08:34:49;;;;;;;34.38;16.35;;;;;;;;;;4914573;29;20206;-72
2024/01/20 08:37:17;;;;;;;34.20;14.10;;;;;;;;;;4921241;29;20212;-73
2024/01/20 08:39:45;;;;;;;32.90;15.73;;;;;;;;;;4931970;29;20210;-72
2024/01/20 08:42:19;;;;;;;27.40;12.73;;;;;;;;;;4927870;29;20205;-71
2024/01/20 08:44:49;;;;;;;33.88;14.18;;;;;;;;;;4918247;29;20220;-73
2024/01/20 08:47:17;;;;;;;31.08;14.45;;;;;;;;;;4915143;29;20205;-73
2024/01/20 08:49:47;;;;;;;24.55;14.27;;;;;;;;;;4914535;29;20575;-73
2024/01/20 08:52:16;;;;;;;29.83;14.95;;;;;;;;;;4920499;29;20289;-73
2024/01/20 08:54:44;;;;;;;27.02;13.68;;;;;;;;;;4922303;29;20205;-73
2024/01/20 08:57:12;;;;;;;32.40;15.05;;;;;;;;;;4914495;29;20209;-72
2024/01/20 08:59:41;;;;;;;40.92;19.38;;;;;;;;;;4914408;29;20215;-72
2024/01/20 09:02:11;;;;;;;31.83;17.98;;;;;;;;;;4933176;29;20714;-74
2024/01/20 09:04:39;;;;;;;41.10;18.48;;;;;;;;;;4925495;29;20599;-74
2024/01/20 09:07:08;;;;;;;52.03;22.55;;;;;;;;;;4932770;29;20217;-74
2024/01/20 09:09:36;;;;;;;35.63;16.98;;;;;;;;;;4919296;29;20213;-74
2024/01/20 09:12:05;;;;;;;36.83;17.00;;;;;;;;;;4913953;29;20225;-74
2024/01/20 09:14:33;;;;;;;37.55;19.02;;;;;;;;;;4925851;29;20209;-74
2024/01/20 09:17:01;;;;;;;40.50;20.23;;;;;;;;;;4933134;29;20573;-74
2024/01/20 09:19:30;;;;;;;49.47;23.13;;;;;;;;;;4934410;29;20215;-74
2024/01/20 09:21:59;;;;;;;55.60;26.35;;;;;;;;;;4917219;29;20575;-74
2024/01/20 09:24:27;;;;;;;39.92;20.48;;;;;;;;;;4925301;29;20211;-74
2024/01/20 09:26:55;;;;;;;35.92;17.85;;;;;;;;;;4933833;29;20208;-74
2024/01/20 09:29:23;;;;;;;37.45;16.55;;;;;;;;;;4934009;29;20333;-75
2024/01/20 09:31:52;;;;;;;36.53;17.23;;;;;;;;;;4919847;29;20233;-75
2024/01/20 09:34:20;;;;;;;31.67;15.93;;;;;;;;;;4927509;29;20205;-74
2024/01/20 09:36:50;;;;;;;27.98;15.05;;;;;;;;;;4937804;29;20279;-75
2024/01/20 09:39:18;;;;;;;30.05;16.50;;;;;;;;;;4938288;29;20240;-74
2024/01/20 09:41:47;;;;;;;31.90;16.30;;;;;;;;;;4937378;29;20211;-74
2024/01/20 09:44:16;;;;;;;29.42;15.60;;;;;;;;;;4931178;29;20656;-74
2024/01/20 09:46:44;;;;;;;34.78;16.58;;;;;;;;;;4920853;29;20215;-74
2024/01/20 09:49:13;;;;;;;33.28;17.10;;;;;;;;;;4937856;29;20211;-74
2024/01/20 09:51:46;;;;;;;29.63;15.27;;;;;;;;;;4905077;29;20227;-73
2024/01/20 09:54:16;;;;;;;31.55;16.67;;;;;;;;;;4929118;29;20667;-73
2024/01/20 09:56:44;;;;;;;33.20;17.23;;;;;;;;;;4901679;29;20668;-73
2024/01/20 09:59:13;;;;;;;34.63;18.08;;;;;;;;;;4918124;29;20220;-73
2024/01/20 10:01:42;;;;;;;37.35;18.42;;;;;;;;;;4916965;29;20225;-73
2024/01/20 10:04:11;;;;;;;39.08;19.98;;;;;;;;;;4923252;29;20766;-73
2024/01/20 10:06:39;;;;;;;35.95;18.52;;;;;;;;;;4926769;29;20205;-74
2024/01/20 10:09:08;;;;;;;39.92;19.63;;;;;;;;;;4936396;29;20690;-74
2024/01/20 10:11:37;;;;;;;38.22;19.48;;;;;;;;;;4936419;29;20228;-73
2024/01/20 10:14:05;;;;;;;38.40;19.30;;;;;;;;;;4930542;29;20231;-74
2024/01/20 10:16:39;;;;;;;35.10;17.10;;;;;;;;;;4919197;29;20216;-73
2024/01/20 10:19:08;;;;;;;34.60;17.98;;;;;;;;;;4933462;29;20197;-74
2024/01/20 10:21:40;;;;;;;31.23;19.05;;;;;;;;;;4937143;29;20213;-74
2024/01/20 10:24:08;;;;;;;55.50;24.77;;;;;;;;;;4930507;29;20216;-73
2024/01/20 10:26:44;;;;;;;48.03;21.55;;;;;;;;;;4917550;29;20224;-74
2024/01/20 10:29:12;;;;;;;36.25;20.35;;;;;;;;;;4925567;29;20196;-73
2024/01/20 10:31:41;;;;;;;41.20;21.80;;;;;;;;;;4936805;29;20582;-73
2024/01/20 10:34:09;;;;;;;39.80;19.83;;;;;;;;;;4930259;29;20609;-73
2024/01/20 10:36:39;;;;;;;40.63;20.95;;;;;;;;;;4917562;29;20744;-74
2024/01/20 10:39:08;;;;;;;40.05;21.50;;;;;;;;;;4917605;29;20672;-73
2024/01/20 10:41:39;;;;;;;38.55;19.30;;;;;;;;;;4912946;29;20219;-73
2024/01/20 10:44:12;;;;;;;37.20;20.30;;;;;;;;;;4931836;29;20219;-74
2024/01/20 10:46:41;;;;;;;37.80;20.40;;;;;;;;;;4936230;29;20215;-74
2024/01/20 10:49:09;;;;;;;36.55;21.25;;;;;;;;;;4935605;29;20213;-74
2024/01/20 10:51:38;;;;;;;38.92;21.98;;;;;;;;;;4936368;29;20699;-74
2024/01/20 10:54:07;;;;;;;39.70;22.13;;;;;;;;;;4912006;29;20205;-73
2024/01/20 10:56:37;;;;;;;36.83;20.45;;;;;;;;;;4936284;29;20730;-74
2024/01/20 10:59:09;;;;;;;34.80;21.10;;;;;;;;;;4933502;29;20208;-70
2024/01/20 11:01:39;;;;;;;36.80;21.00;;;;;;;;;;4925977;29;20280;-70
2024/01/20 11:04:08;;;;;;;36.95;20.77;;;;;;;;;;4927955;29;20317;-70
2024/01/20 11:06:36;;;;;;;36.58;21.45;;;;;;;;;;4941885;29;20363;-69
2024/01/20 11:09:04;;;;;;;37.20;21.58;;;;;;;;;;4940362;29;20260;-69
2024/01/20 11:11:35;;;;;;;41.13;23.02;;;;;;;;;;4943111;29;20307;-70
2024/01/20 11:14:03;;;;;;;33.58;20.55;;;;;;;;;;4937162;29;20252;-70
2024/01/20 11:16:32;;;;;;;32.15;22.20;;;;;;;;;;4935031;29;20214;-70
2024/01/20 11:19:11;;;;;;;33.05;22.23;;;;;;;;;;4936098;29;20201;-70
2024/01/20 11:21:39;;;;;;;33.10;23.17;;;;;;;;;;4940408;29;20269;-69
2024/01/20 11:24:08;;;;;;;33.30;24.90;;;;;;;;;;4934089;29;20212;-69
2024/01/20 11:26:37;;;;;;;36.03;27.73;;;;;;;;;;4932920;29;20287;-69
2024/01/20 11:29:06;;;;;;;31.67;23.08;;;;;;;;;;4933025;29;20279;-69
2024/01/20 11:31:35;;;;;;;30.02;22.77;;;;;;;;;;4903988;29;20306;-69
2024/01/20 11:34:05;;;;;;;31.83;24.52;;;;;;;;;;4924193;29;20200;-70
2024/01/20 11:36:36;;;;;;;36.95;26.60;;;;;;;;;;4937119;29;20209;-69
2024/01/20 11:39:05;;;;;;;31.25;24.77;;;;;;;;;;4932403;29;20852;-69
2024/01/20 11:41:33;;;;;;;31.17;26.17;;;;;;;;;;4928930;29;20221;-68
2024/01/20 11:44:01;;;;;;;28.27;24.85;;;;;;;;;;4935095;29;20205;-68
2024/01/20 11:46:29;;;;;;;35.67;26.75;;;;;;;;;;4936402;29;20204;-70
2024/01/20 11:48:58;;;;;;;33.05;26.60;;;;;;;;;;4917510;29;20272;-69
2024/01/20 11:51:26;;;;;;;38.35;27.73;;;;;;;;;;4927505;29;20669;-68
2024/01/20 11:53:56;;;;;;;39.50;28.70;;;;;;;;;;4933226;29;20605;-68
2024/01/20 11:56:24;;;;;;;32.15;28.42;;;;;;;;;;4931870;29;20213;-71
2024/01/20 11:58:53;;;;;;;41.13;30.13;;;;;;;;;;4936050;29;20214;-70
2024/01/20 12:01:21;;;;;;;34.92;30.92;;;;;;;;;;4936224;29;20209;-69
2024/01/20 12:03:49;;;;;;;34.05;29.90;;;;;;;;;;4932797;29;20715;-69
2024/01/20 12:06:17;;;;;;;37.72;29.80;;;;;;;;;;4917777;29;20627;-68
2024/01/20 12:08:46;;;;;;;39.40;32.25;;;;;;;;;;4933864;29;20208;-69
2024/01/20 12:11:19;;;;;;;33.08;27.77;;;;;;;;;;4917758;29;20213;-69
2024/01/20 12:13:48;;;;;;;34.92;29.90;;;;;;;;;;4919912;29;20185;-69
2024/01/20 12:16:16;;;;;;;35.20;28.95;;;;;;;;;;4918421;29;20201;-70
2024/01/20 12:18:44;;;;;;;30.38;27.08;;;;;;;;;;4915897;29;20214;-69
2024/01/20 12:21:12;;;;;;;34.08;30.35;;;;;;;;;;4935374;29;20208;-69
2024/01/20 12:23:41;;;;;;;31.15;27.25;;;;;;;;;;4928311;29;20231;-70
2024/01/20 12:26:13;;;;;;;32.45;27.38;;;;;;;;;;4927898;29;20726;-71
2024/01/20 12:28:45;;;;;;;34.92;29.20;;;;;;;;;;4922328;29;20202;-70
2024/01/20 12:31:13;;;;;;;31.70;28.30;;;;;;;;;;4917508;29;20261;-70
2024/01/20 12:33:41;;;;;;;33.53;27.05;;;;;;;;;;4919378;29;20201;-70
2024/01/20 12:36:10;;;;;;;33.80;30.10;;;;;;;;;;4886088;29;20209;-72
2024/01/20 12:38:38;;;;;;;33.25;29.67;;;;;;;;;;4913208;29;20256;-71
2024/01/20 12:41:06;;;;;;;35.28;30.10;;;;;;;;;;4935596;29;20212;-69
2024/01/20 12:43:35;;;;;;;32.20;28.88;;;;;;;;;;4936104;29;20216;-71
2024/01/20 12:46:05;;;;;;;32.45;28.65;;;;;;;;;;4911975;29;20205;-69
2024/01/20 12:48:33;;;;;;;34.17;28.55;;;;;;;;;;4924385;29;20206;-69
2024/01/20 12:51:02;;;;;;;34.08;30.58;;;;;;;;;;4928186;29;20232;-69
2024/01/20 12:53:30;;;;;;;35.20;30.38;;;;;;;;;;4901214;29;20205;-70
2024/01/20 12:55:58;;;;;;;35.70;29.42;;;;;;;;;;4935474;29;20212;-70
2024/01/20 12:58:30;;;;;;;33.92;30.33;;;;;;;;;;4935645;29;20602;-69
2024/01/20 13:00:58;;;;;;;35.88;31.33;;;;;;;;;;4920933;29;20194;-71
2024/01/20 13:03:28;;;;;;;35.15;31.52;;;;;;;;;;4907113;29;20238;-70
2024/01/20 13:05:56;;;;;;;34.03;30.30;;;;;;;;;;4910502;29;20543;-69
2024/01/20 13:08:24;;;;;;;36.38;32.58;;;;;;;;;;4920337;29;20537;-70
2024/01/20 13:10:53;;;;;;;32.75;29.30;;;;;;;;;;4920169;29;20201;-69
2024/01/20 13:13:21;;;;;;;32.65;29.25;;;;;;;;;;4918055;29;20209;-73
2024/01/20 13:15:49;;;;;;;34.75;30.95;;;;;;;;;;4929907;29;20208;-73
2024/01/20 13:18:17;;;;;;;33.78;30.25;;;;;;;;;;4935000;29;20208;-73
2024/01/20 13:20:47;;;;;;;32.22;28.80;;;;;;;;;;4934680;29;20267;-72
2024/01/20 13:23:14;;;;;;;36.88;33.17;;;;;;;;;;4920010;29;20778;-73
2024/01/20 13:25:42;;;;;;;36.00;32.30;;;;;;;;;;4935688;29;20212;-76
2024/01/20 13:28:13;;;;;;;36.53;31.65;;;;;;;;;;4904819;29;20212;-72
2024/01/20 13:30:41;;;;;;;33.15;29.55;;;;;;;;;;4963372;23;20234;-85
2024/01/20 13:33:09;;;;;;;33.28;29.88;;;;;;;;;;4994046;28;20253;-86
2024/01/20 13:35:37;;;;;;;32.95;29.58;;;;;;;;;;5013356;28;20197;-85
2024/01/20 13:38:08;;;;;;;36.38;31.85;;;;;;;;;;5014487;28;20206;-85
2024/01/20 13:40:36;;;;;;;33.95;30.63;;;;;;;;;;5015979;28;20568;-85
2024/01/20 13:43:04;;;;;;;35.17;31.63;;;;;;;;;;5009261;28;20221;-84
2024/01/20 13:45:32;;;;;;;35.58;31.88;;;;;;;;;;5005081;28;20644;-84
2024/01/20 13:48:00;;;;;;;38.22;34.08;;;;;;;;;;5003475;28;20205;-84
2024/01/20 13:50:28;;;;;;;37.40;30.00;;;;;;;;;;5014073;28;20202;-83
2024/01/20 13:52:56;;;;;;;36.10;31.08;;;;;;;;;;4994389;28;20202;-82
2024/01/20 13:55:26;;;;;;;51.78;34.03;;;;;;;;;;5006108;28;20225;-83
2024/01/20 13:57:54;;;;;;;37.22;28.05;;;;;;;;;;4998199;28;20280;-81
2024/01/20 14:00:22;;;;;;;36.30;26.20;;;;;;;;;;5000631;28;20202;-83
2024/01/20 14:02:50;;;;;;;42.42;25.52;;;;;;;;;;4996300;28;20222;-85
2024/01/20 14:05:18;;;;;;;46.80;27.77;;;;;;;;;;5005305;28;20776;-85
2024/01/20 14:07:46;;;;;;;38.60;25.73;;;;;;;;;;5006506;28;20657;-84
2024/01/20 14:10:14;;;;;;;38.95;26.17;;;;;;;;;;5005952;28;20285;-84
2024/01/20 14:12:44;;;;;;;40.17;24.65;;;;;;;;;;5001864;28;20198;-85
2024/01/20 14:15:12;;;;;;;39.40;24.85;;;;;;;;;;4990066;28;20568;-84
2024/01/20 14:17:40;;;;;;;38.10;25.60;;;;;;;;;;5005042;28;20242;-88
2024/01/20 14:20:09;;;;;;;35.28;24.88;;;;;;;;;;5001821;28;20252;-88
2024/01/20 14:22:37;;;;;;;37.38;26.65;;;;;;;;;;5026916;28;20222;-86
2024/01/20 14:25:06;;;;;;;33.80;28.90;;;;;;;;;;5009447;28;20741;-86
2024/01/20 14:27:34;;;;;;;37.92;29.65;;;;;;;;;;5012776;28;20207;-88